Hlavní strana
METAR-TAF:

METAR-TAF

Letiště :

Majuro, Marshallovy ostrovy

zeměpisná šířka: 07-04N, zeměpisná délka: 171-17E, výška: 2 m

Aktuální stav počasí

Zpráva byla vytvořena před 1 hodinou a 3 minutami, v 21:53 UTC
Severovýchodní vítr 15 kt
Teplota 30°C
Vlhkost vzduchu 75%
Tlak 1013 hPa
Viditelnost: 8.0 km
Skoro jasno ve výšce 1500 ft
Polojasno ve výšce 5000 ft
Oblačno až skoro zataženo ve výšce 30000 ft
zákal

METAR: PKMJ 182153Z 04015KT 5SM HZ FEW015 SCT050 BKN300 30/25 A2990

Čas: 10:56 (22:56 UTC)

Předpověď počasí

Zpráva byla vytvořena před 5 hodinami a 22 minutami, v 17:34 UTC
Předpověď platná od 18 v 18 UTC do 19 v 18 UTC
Východní vítr 11 kt
Viditelnost: 10 km
Polojasno ve výšce 1500 ft
Polojasno ve výšce 5000 ft
přeháňky v blízkosti

TAF: PKMJ 181734Z 1818/1918 08011KT P6SM VCSH SCT015 SCT050

Stav a předpovědi počasí z více než 4 000 letišť (zprávy METAR a TAF).

Červené a žluté tečky na mapě představují dostupné meteorologické stanice.

Když kurzor umístíte na tečku, zobrazí se název stanice.

Pak kliknutím zobrazíte stav a předpověď počasí.

Chcete-li změnit mapu, kliknutím na zelené tlačítko se znaménkem +mapu přiblížíte, kliknutím na zelené tlačítko se znaménkem – mapu oddálíte a kliknutím na zelené šipky přejdete na sousední mapy.


METAR-TAF: